ΕΜΥ, Εθνική Μετεωρολογική Υπηρεσία - Δελτία Καιρού, Προγνώσεις

ΑΕΡΟΝΑΥΤΙΛΙΑ

GREEK AIRPORTS CODES

LGTY 241200Z 24005KT 9999 FEW018 26/17 Q1011=

EUROPEAN AIRPORTS CODES

LFPO 270900Z 30006KT 260V320 9999 FEW050 FEW053TCU BKN06619/12 Q1018 NOSIG=